MDPP

Details ICAO MDPP (POP)
Name Puerto Plata Gregorio Luperon Intl
Region Dominican Republic
Timezone America/Santo_Domingo (UTC-4.0)
Plans Departing 120
Arriving 160
Stats Elevation 15 ft / 5 m (AMSL)
Location 19.757900° -70.570035°
Runways 1
Magnetic Variation 11.228° W
Sunrise 2017-12-15 11:10:36 UTC / 2017-12-15 07:10:36 Local
Sunset 2017-12-15 22:07:15 UTC / 2017-12-15 18:07:15 Local
Advertisement - Login to hide

Runways

ID Width Length Bearing (true) Bearing (mag) Surface Threshold Offset Overrun Length
08 151 ft / 46 m 10,101 ft / 3,079 m 72.95° 84.18° Asphalt 0 ft / 0 m 0 ft / 0 m
26 151 ft / 46 m 10,101 ft / 3,079 m 252.95° 264.18° Asphalt 0 ft / 0 m 0 ft / 0 m

Map

Weather


0- 5 10 15 20 25 30 35+ Temperature / ° C

Clouds and Precipitation
Forecast for 2017-12-15 12:00 UTC. Updated an hour ago

Ground ~20,000 ft ~40,000 ft Winds

METAR

MDPP 151200Z 00000KT 9999 FEW018 22/22 Q1018

TAF

Not found

Frequencies

Ground 121.90 MHz GND
Approach 119.00 MHz PUERTO PLATA APP
Tower 118.00 MHz PUERTO PLATA TWR
Warning: Do not use this data for real-world aviation or navigation. No guarantee of current accuracy is given.